ADDS METAR Data INFO
IDs: Format: Raw Decoded Include TAF

Data at: 1951 UTC 14 Aug 2018

KDTL 141935Z AUTO 01006KT 10SM CLR 20/13 A3001 RMK AO2
KDTL 141915Z AUTO 35006KT 10SM CLR 20/13 A3002 RMK AO2
KDTL 141855Z AUTO 35006G14KT 10SM CLR 20/13 A3002 RMK AO2
KDTL 141835Z AUTO 33007KT 10SM SCT020 SCT029 20/13 A3003 RMK AO2 LTG DSNT S
KDTL 141815Z AUTO 35011G15KT 10SM SCT020 BKN027 20/15 A3003 RMK AO2 LTG DSNT SW
KDTL 141755Z AUTO 33006KT 10SM SCT017 BKN025 20/15 A3003 RMK AO2
KDTL 141735Z AUTO 33003KT 10SM BKN017 OVC028 19/15 A3004 RMK AO2
KDTL 141715Z AUTO 00000KT 10SM SCT013 BKN020 OVC026 19/16 A3003 RMK AO2 LTG DSNT SE AND S
KDTL 141655Z AUTO 32008KT 10SM BKN013 OVC019 19/16 A3003 RMK AO2 LTG DSNT S
KDTL 141635Z AUTO 00000KT 10SM OVC013 19/16 A3003 RMK AO2 LTG DSNT S AND SW
KDTL 141615Z AUTO 33006KT 10SM SCT011 OVC014 18/16 A3003 RMK AO2 LTG DSNT SW AND W
KDTL 141555Z AUTO 35004KT 10SM BKN011 OVC021 18/16 A3003 RMK AO2 LTG DSNT SW
KDTL 141535Z AUTO 35004KT 10SM BKN011 BKN016 BKN021 18/16 A3002 RMK AO2
KDTL 141515Z AUTO 36003KT 10SM BKN009 OVC021 18/16 A3002 RMK AO2
KDTL 141455Z AUTO 36003KT 10SM BKN007 BKN016 17/16 A3002 RMK AO2
KDTL 141435Z AUTO 36004KT 10SM SCT007 SCT014 17/15 A3002 RMK AO2
KDTL 141415Z AUTO 32003KT 10SM SCT007 17/15 A3002 RMK AO2 LTG DSNT SE AND SW
KDTL 141355Z AUTO 00000KT 10SM SCT055 16/15 A3001 RMK AO2 LTG DSNT S AND SW
KDTL 141335Z AUTO 00000KT 10SM SCT005 SCT055 16/15 A3002 RMK AO2 LTG DSNT SE AND SW
KDTL 141315Z AUTO 00000KT 10SM SCT005 SCT065 16/15 A3001 RMK AO2 LTG DSNT SE AND SW
KDTL 141255Z AUTO 00000KT 10SM CLR 16/15 A3002 RMK AO2 LTG DSNT SW
KDTL 141235Z AUTO 00000KT 10SM SCT070 SCT080 16/15 A3001 RMK AO2 LTG DSNT SW AND W
KDTL 141215Z AUTO 36004KT 10SM CLR 16/15 A3000 RMK AO2 LTG DSNT SE THRU SW
KDTL 141155Z AUTO 35007KT 10SM CLR 16/15 A2999 RMK AO2 LTG DSNT SE AND SW
KDTL 141135Z AUTO 36004KT 10SM CLR 16/15 A3000 RMK AO2 LTG DSNT SE THRU W
KDTL 141115Z AUTO 36004KT 10SM CLR 16/15 A2999 RMK AO2 LTG DSNT SW AND W
KDTL 141055Z AUTO 36005KT 10SM VCTS CLR 16/15 A2999 RMK AO2 LTG DSNT SW AND W
KDTL 141035Z AUTO 33004KT 10SM VCTS CLR 16/15 A3000 RMK AO2 LTG DSNT SW AND W
KDTL 141015Z AUTO 02004KT 10SM CLR 16/15 A2999 RMK AO2 LTG DSNT W
KDTL 140955Z AUTO 01005G15KT 10SM CLR 16/15 A2998 RMK AO2 P0001
KDTL 140935Z AUTO 34016G21KT 10SM VCTS CLR 16/15 A2999 RMK AO2 P0001 LTG DSNT E AND SW
KDTL 140915Z AUTO 36004KT 10SM TS SCT007 SCT011 16/13 A2997 RMK AO2 P0001 LTG DSNT NE THRU SE
KDTL 140855Z AUTO 00000KT 3SM -TSRA SCT005 BKN011 OVC050 16/14 A2996 RMK AO2 P0032 LTG DSNT ALQS
KDTL 140835Z AUTO 30014G21KT 10SM TS SCT026 OVC048 17/13 A3005 RMK AO2 LTG DSNT ALQS
KDTL 140815Z AUTO 32006KT 10SM TS BKN050 17/14 A2999 RMK AO2 LTG DSNT W AND NW
KDTL 140755Z AUTO 00000KT 10SM VCTS SCT050 18/14 A2998 RMK AO2 LTG DSNT W
KDTL 140735Z AUTO 00000KT 10SM CLR 19/13 A2997 RMK AO2 LTG DSNT W
KDTL 140715Z AUTO 00000KT 10SM VCTS CLR 19/13 A2995 RMK AO2 LTG DSNT W
KDTL 140655Z AUTO 00000KT 10SM CLR 19/13 A2996 RMK AO2 LTG DSNT W
KDTL 140635Z AUTO 00000KT 10SM CLR 20/13 A2995 RMK AO2 LTG DSNT W
KDTL 140615Z AUTO 00000KT 10SM CLR 20/13 A2996 RMK AO2 LTG DSNT W
KDTL 140555Z AUTO 00000KT 10SM CLR 20/13 A2997 RMK AO2
KDTL 140535Z AUTO 36004KT 10SM CLR 20/13 A2998 RMK AO2
KDTL 140515Z AUTO 36004KT 10SM CLR 20/13 A2999 RMK AO2
KDTL 140455Z AUTO 36008G19KT 10SM CLR 20/13 A3000 RMK AO2
KDTL 140435Z AUTO 35010G16KT 10SM CLR 21/15 A2999 RMK AO2
KDTL 140415Z AUTO 35007KT 10SM CLR 22/16 A2997 RMK AO2
KDTL 140355Z AUTO 35008KT 10SM CLR 23/16 A2997 RMK AO2
KDTL 140335Z AUTO 00000KT 10SM CLR 24/17 A2996 RMK AO2
KDTL 140315Z AUTO 35004KT 10SM CLR 25/19 A2996 RMK AO2
KDTL 140255Z AUTO 00000KT 10SM CLR 25/19 A2995 RMK AO2
KDTL 140235Z AUTO 35003KT 10SM CLR 25/21 A2995 RMK AO2
KDTL 140215Z AUTO 00000KT 10SM SCT060 SCT070 26/21 A2994 RMK AO2
KDTL 140155Z AUTO 00000KT 10SM CLR 26/20 A2993 RMK AO2
KDTL 140135Z AUTO 00000KT 10SM CLR 27/20 A2992 RMK AO2 LTG DSNT W
KDTL 140115Z AUTO 00000KT 10SM CLR 27/20 A2993 RMK AO2
KDTL 140055Z AUTO 00000KT 10SM CLR 27/20 A2992 RMK AO2
KDTL 140035Z AUTO 00000KT 10SM CLR 28/20 A2992 RMK AO2
KDTL 140015Z AUTO 33004KT 10SM CLR 30/18 A2991 RMK AO2
KDTL 132355Z AUTO 00000KT 10SM CLR 30/17 A2991 RMK AO2
KDTL 132335Z AUTO 00000KT 10SM CLR 31/18 A2991 RMK AO2
KDTL 132315Z AUTO 00000KT 10SM SCT060 31/18 A2992 RMK AO2
KDTL 132255Z AUTO 00000KT 10SM CLR 31/17 A2991 RMK AO2
KDTL 132235Z AUTO 23008KT 10SM CLR 31/17 A2991 RMK AO2
KDTL 132215Z AUTO 23008KT 10SM CLR 32/17 A2991 RMK AO2
KDTL 132155Z AUTO 23011G15KT 10SM CLR 32/17 A2991 RMK AO2
KDTL 132135Z AUTO 22011G14KT 10SM CLR 32/18 A2991 RMK AO2
KDTL 132115Z AUTO 22012KT 10SM CLR 31/18 A2991 RMK AO2
KDTL 132055Z AUTO 22010KT 10SM CLR 31/18 A2992 RMK AO2
KDTL 132035Z AUTO 21013G17KT 10SM CLR 31/18 A2991 RMK AO2
KDTL 132015Z AUTO 20012G18KT 10SM CLR 31/18 A2991 RMK AO2
KDTL 131955Z AUTO 23009G16KT 10SM CLR 31/18 A2992 RMK AO2
KDTL 131935Z AUTO 22011G16KT 10SM CLR 31/18 A2992 RMK AO2
KDTL 131915Z AUTO 22014G17KT 10SM CLR 31/17 A2991 RMK AO2
KDTL 131855Z AUTO 22013G16KT 10SM CLR 31/18 A2992 RMK AO2
KDTL 131835Z AUTO 21014G21KT 10SM CLR 31/18 A2992 RMK AO2
KDTL 131815Z AUTO 22011G17KT 10SM CLR 30/18 A2993 RMK AO2
KDTL 131755Z AUTO 21010G16KT 10SM CLR 30/18 A2993 RMK AO2
KDTL 131735Z AUTO 21012KT 10SM CLR 30/18 A2993 RMK AO2
KDTL 131715Z AUTO 20011G19KT 10SM CLR 29/17 A2994 RMK AO2
KDTL 131655Z AUTO 21013G18KT 10SM CLR 28/17 A2994 RMK AO2
KDTL 131635Z AUTO 22011G15KT 10SM CLR 28/17 A2994 RMK AO2
KDTL 131615Z AUTO 21012G16KT 10SM CLR 28/18 A2994 RMK AO2
KDTL 131555Z AUTO 21007G17KT 10SM CLR 27/18 A2994 RMK AO2
KDTL 131535Z AUTO 19011KT 10SM CLR 26/18 A2994 RMK AO2
KDTL 131515Z AUTO 21009G17KT 10SM CLR 26/18 A2995 RMK AO2
KDTL 131455Z AUTO 19010KT 10SM CLR 25/18 A2995 RMK AO2
KDTL 131435Z AUTO 20010G16KT 10SM CLR 25/18 A2996 RMK AO2
KDTL 131415Z AUTO 21010KT 10SM CLR 25/18 A2997 RMK AO2
KDTL 131355Z AUTO 00000KT 10SM CLR 24/18 A2996 RMK AO2
KDTL 131335Z AUTO 20010KT 10SM CLR 23/18 A2996 RMK AO2
KDTL 131315Z AUTO 20008KT 10SM CLR 23/18 A2996 RMK AO2
KDTL 131255Z AUTO 19004KT 10SM CLR 22/18 A2996 RMK AO2
KDTL 131235Z AUTO 20003KT 10SM CLR 22/18 A2997 RMK AO2
KDTL 131215Z AUTO 20004KT 10SM CLR 22/18 A2996 RMK AO2
KDTL 131155Z AUTO 21009KT 10SM CLR 22/18 A2995 RMK AO2
KDTL 131135Z AUTO 20009KT 10SM CLR 22/18 A2995 RMK AO2
KDTL 131115Z AUTO 20008KT 10SM CLR 22/18 A2995 RMK AO2
KDTL 131055Z AUTO 21005KT 10SM CLR 22/18 A2996 RMK AO2
KDTL 131035Z AUTO 20009G14KT 10SM CLR 23/18 A2996 RMK AO2
KDTL 131015Z AUTO 00000KT 10SM CLR 23/19 A2996 RMK AO2
KDTL 130955Z AUTO 19005KT 10SM CLR 23/19 A2996 RMK AO2
KDTL 130935Z AUTO 19008G14KT 10SM CLR 23/20 A2996 RMK AO2
KDTL 130915Z AUTO 19008G16KT 10SM CLR 23/20 A2996 RMK AO2
KDTL 130855Z AUTO 20009G15KT 10SM CLR 23/20 A2996 RMK AO2
KDTL 130835Z AUTO 19010G14KT 10SM CLR 23/20 A2997 RMK AO2
KDTL 130815Z AUTO 19011G19KT 10SM CLR 23/20 A2997 RMK AO2
KDTL 130755Z AUTO 19010G14KT 10SM CLR 23/20 A2997 RMK AO2